sensor_id;sensor_type;location;lat;lon;timestamp;temperature;humidity
26952;DHT22;14507;52.418;13.398;2022-07-29T00:00:12;17.90;86.20
26952;DHT22;14507;52.418;13.398;2022-07-29T00:02:38;17.40;86.30
26952;DHT22;14507;52.418;13.398;2022-07-29T00:05:04;17.30;86.30
26952;DHT22;14507;52.418;13.398;2022-07-29T00:07:30;17.40;86.40
26952;DHT22;14507;52.418;13.398;2022-07-29T00:09:56;17.30;86.60
26952;DHT22;14507;52.418;13.398;2022-07-29T00:12:23;17.20;86.70
26952;DHT22;14507;52.418;13.398;2022-07-29T00:14:49;17.20;87.00
26952;DHT22;14507;52.418;13.398;2022-07-29T00:17:14;17.20;87.20
26952;DHT22;14507;52.418;13.398;2022-07-29T00:19:40;17.10;87.60
26952;DHT22;14507;52.418;13.398;2022-07-29T00:22:06;17.20;88.10
26952;DHT22;14507;52.418;13.398;2022-07-29T00:24:31;17.10;88.20
26952;DHT22;14507;52.418;13.398;2022-07-29T00:26:57;17.10;88.20
26952;DHT22;14507;52.418;13.398;2022-07-29T00:29:22;17.10;88.60
26952;DHT22;14507;52.418;13.398;2022-07-29T00:31:48;17.00;88.60
26952;DHT22;14507;52.418;13.398;2022-07-29T00:34:14;17.10;88.80
26952;DHT22;14507;52.418;13.398;2022-07-29T00:36:58;17.00;88.90
26952;DHT22;14507;52.418;13.398;2022-07-29T00:39:23;17.10;89.50
26952;DHT22;14507;52.418;13.398;2022-07-29T00:41:49;17.00;90.00
26952;DHT22;14507;52.418;13.398;2022-07-29T00:44:15;16.90;89.80
26952;DHT22;14507;52.418;13.398;2022-07-29T00:46:41;17.10;90.10
26952;DHT22;14507;52.418;13.398;2022-07-29T00:49:07;16.90;90.20
26952;DHT22;14507;52.418;13.398;2022-07-29T00:51:35;16.80;90.40
26952;DHT22;14507;52.418;13.398;2022-07-29T00:54:02;16.70;90.60
26952;DHT22;14507;52.418;13.398;2022-07-29T00:56:30;16.80;90.70
26952;DHT22;14507;52.418;13.398;2022-07-29T00:58:57;16.70;90.90
26952;DHT22;14507;52.418;13.398;2022-07-29T01:01:22;16.60;91.10
26952;DHT22;14507;52.418;13.398;2022-07-29T01:03:48;16.70;91.40
26952;DHT22;14507;52.418;13.398;2022-07-29T01:06:16;16.60;91.50
26952;DHT22;14507;52.418;13.398;2022-07-29T01:08:42;16.60;91.80
26952;DHT22;14507;52.418;13.398;2022-07-29T01:11:09;16.60;91.80
26952;DHT22;14507;52.418;13.398;2022-07-29T01:13:34;16.60;91.90
26952;DHT22;14507;52.418;13.398;2022-07-29T01:16:07;16.60;92.10
26952;DHT22;14507;52.418;13.398;2022-07-29T01:18:39;16.50;92.30
26952;DHT22;14507;52.418;13.398;2022-07-29T01:21:47;16.50;92.40
26952;DHT22;14507;52.418;13.398;2022-07-29T01:24:33;16.50;92.70
26952;DHT22;14507;52.418;13.398;2022-07-29T01:27:32;16.40;92.80
26952;DHT22;14507;52.418;13.398;2022-07-29T01:30:03;16.40;93.40
26952;DHT22;14507;52.418;13.398;2022-07-29T01:32:34;16.40;93.30
26952;DHT22;14507;52.418;13.398;2022-07-29T01:35:04;16.40;93.60
26952;DHT22;14507;52.418;13.398;2022-07-29T01:37:52;16.30;93.60
26952;DHT22;14507;52.418;13.398;2022-07-29T01:40:45;16.30;94.10
26952;DHT22;14507;52.418;13.398;2022-07-29T01:43:16;16.30;94.10
26952;DHT22;14507;52.418;13.398;2022-07-29T01:45:48;16.30;94.30
26952;DHT22;14507;52.418;13.398;2022-07-29T01:48:19;16.20;94.50
26952;DHT22;14507;52.418;13.398;2022-07-29T01:50:50;16.20;94.70
26952;DHT22;14507;52.418;13.398;2022-07-29T01:53:24;16.20;94.80
26952;DHT22;14507;52.418;13.398;2022-07-29T01:55:52;16.20;95.10
26952;DHT22;14507;52.418;13.398;2022-07-29T01:58:18;16.20;95.40
26952;DHT22;14507;52.418;13.398;2022-07-29T02:00:45;16.30;95.50
26952;DHT22;14507;52.418;13.398;2022-07-29T02:03:13;16.10;95.60
26952;DHT22;14507;52.418;13.398;2022-07-29T02:05:41;16.10;95.80
26952;DHT22;14507;52.418;13.398;2022-07-29T02:08:08;16.10;96.10
26952;DHT22;14507;52.418;13.398;2022-07-29T02:10:36;16.00;96.50
26952;DHT22;14507;52.418;13.398;2022-07-29T02:13:03;16.00;96.50
26952;DHT22;14507;52.418;13.398;2022-07-29T02:15:33;15.90;96.60
26952;DHT22;14507;52.418;13.398;2022-07-29T02:18:08;16.00;96.80
26952;DHT22;14507;52.418;13.398;2022-07-29T02:20:36;15.90;97.00
26952;DHT22;14507;52.418;13.398;2022-07-29T02:23:03;15.90;97.30
26952;DHT22;14507;52.418;13.398;2022-07-29T02:25:29;15.90;97.30
26952;DHT22;14507;52.418;13.398;2022-07-29T02:27:56;15.90;97.40
26952;DHT22;14507;52.418;13.398;2022-07-29T02:30:24;15.90;97.50
26952;DHT22;14507;52.418;13.398;2022-07-29T02:32:51;15.90;97.70
26952;DHT22;14507;52.418;13.398;2022-07-29T02:35:18;15.90;97.80
26952;DHT22;14507;52.418;13.398;2022-07-29T02:37:45;15.80;97.90
26952;DHT22;14507;52.418;13.398;2022-07-29T02:40:34;16.00;98.10
26952;DHT22;14507;52.418;13.398;2022-07-29T02:43:03;15.80;98.30
26952;DHT22;14507;52.418;13.398;2022-07-29T02:45:31;15.80;98.40
26952;DHT22;14507;52.418;13.398;2022-07-29T02:47:57;15.80;98.50
26952;DHT22;14507;52.418;13.398;2022-07-29T02:50:32;15.80;98.60
26952;DHT22;14507;52.418;13.398;2022-07-29T02:55:37;15.70;98.90
26952;DHT22;14507;52.418;13.398;2022-07-29T03:00:47;15.70;99.20
26952;DHT22;14507;52.418;13.398;2022-07-29T03:03:15;15.70;99.30
26952;DHT22;14507;52.418;13.398;2022-07-29T03:05:41;15.70;99.40
26952;DHT22;14507;52.418;13.398;2022-07-29T03:08:09;15.70;99.50
26952;DHT22;14507;52.418;13.398;2022-07-29T03:10:37;15.60;99.60
26952;DHT22;14507;52.418;13.398;2022-07-29T03:13:05;15.60;99.80
26952;DHT22;14507;52.418;13.398;2022-07-29T03:15:31;15.60;99.90
26952;DHT22;14507;52.418;13.398;2022-07-29T03:17:58;15.60;99.90
26952;DHT22;14507;52.418;13.398;2022-07-29T03:20:25;15.60;99.90
26952;DHT22;14507;52.418;13.398;2022-07-29T03:22:51;15.60;99.90
26952;DHT22;14507;52.418;13.398;2022-07-29T03:25:18;15.60;99.90
26952;DHT22;14507;52.418;13.398;2022-07-29T03:27:44;15.60;99.90
26952;DHT22;14507;52.418;13.398;2022-07-29T03:30:11;15.60;99.90
26952;DHT22;14507;52.418;13.398;2022-07-29T03:32:38;15.60;99.90
26952;DHT22;14507;52.418;13.398;2022-07-29T03:35:04;15.60;99.90
26952;DHT22;14507;52.418;13.398;2022-07-29T03:37:30;15.60;99.90
26952;DHT22;14507;52.418;13.398;2022-07-29T03:39:57;15.60;99.90
26952;DHT22;14507;52.418;13.398;2022-07-29T03:42:30;15.50;99.90
26952;DHT22;14507;52.418;13.398;2022-07-29T03:44:57;15.50;99.90
26952;DHT22;14507;52.418;13.398;2022-07-29T03:47:26;15.50;99.90
26952;DHT22;14507;52.418;13.398;2022-07-29T03:49:55;15.60;99.90
26952;DHT22;14507;52.418;13.398;2022-07-29T03:52:22;15.60;99.90
26952;DHT22;14507;52.418;13.398;2022-07-29T03:54:48;15.60;99.90
26952;DHT22;14507;52.418;13.398;2022-07-29T03:57:14;15.60;99.90
26952;DHT22;14507;52.418;13.398;2022-07-29T03:59:41;15.50;99.90
26952;DHT22;14507;52.418;13.398;2022-07-29T04:02:09;15.60;99.90
26952;DHT22;14507;52.418;13.398;2022-07-29T04:04:36;16.30;99.90
26952;DHT22;14507;52.418;13.398;2022-07-29T04:07:02;15.60;99.90
26952;DHT22;14507;52.418;13.398;2022-07-29T04:09:28;15.60;99.90
26952;DHT22;14507;52.418;13.398;2022-07-29T04:11:53;15.60;99.90
26952;DHT22;14507;52.418;13.398;2022-07-29T04:14:19;16.70;99.90
26952;DHT22;14507;52.418;13.398;2022-07-29T04:19:11;15.60;99.90
26952;DHT22;14507;52.418;13.398;2022-07-29T04:21:38;15.70;99.90
26952;DHT22;14507;52.418;13.398;2022-07-29T04:24:04;15.60;99.90
26952;DHT22;14507;52.418;13.398;2022-07-29T04:26:30;15.70;99.90
26952;DHT22;14507;52.418;13.398;2022-07-29T04:28:55;15.70;99.90
26952;DHT22;14507;52.418;13.398;2022-07-29T04:31:21;15.70;99.90
26952;DHT22;14507;52.418;13.398;2022-07-29T04:33:47;15.70;99.90
26952;DHT22;14507;52.418;13.398;2022-07-29T04:36:12;15.80;99.90
26952;DHT22;14507;52.418;13.398;2022-07-29T04:41:04;15.80;99.90
26952;DHT22;14507;52.418;13.398;2022-07-29T04:43:32;15.90;99.90
26952;DHT22;14507;52.418;13.398;2022-07-29T04:45:58;15.90;99.90
26952;DHT22;14507;52.418;13.398;2022-07-29T04:48:24;15.90;99.90
26952;DHT22;14507;52.418;13.398;2022-07-29T04:50:49;16.00;99.90
26952;DHT22;14507;52.418;13.398;2022-07-29T04:53:15;16.10;99.90
26952;DHT22;14507;52.418;13.398;2022-07-29T04:58:07;16.10;99.80
26952;DHT22;14507;52.418;13.398;2022-07-29T05:00:33;16.20;99.90
26952;DHT22;14507;52.418;13.398;2022-07-29T05:02:58;16.20;99.90
26952;DHT22;14507;52.418;13.398;2022-07-29T05:05:24;16.20;99.90
26952;DHT22;14507;52.418;13.398;2022-07-29T05:07:49;16.30;99.90
26952;DHT22;14507;52.418;13.398;2022-07-29T05:10:15;16.40;99.90
26952;DHT22;14507;52.418;13.398;2022-07-29T05:12:41;16.40;99.70
26952;DHT22;14507;52.418;13.398;2022-07-29T05:15:06;16.40;99.70
26952;DHT22;14507;52.418;13.398;2022-07-29T05:17:32;16.40;99.50
26952;DHT22;14507;52.418;13.398;2022-07-29T05:19:58;16.50;99.40
26952;DHT22;14507;52.418;13.398;2022-07-29T05:22:24;16.50;99.30
26952;DHT22;14507;52.418;13.398;2022-07-29T05:24:50;16.60;99.20
26952;DHT22;14507;52.418;13.398;2022-07-29T05:27:15;16.60;99.10
26952;DHT22;14507;52.418;13.398;2022-07-29T05:29:41;16.70;98.90
26952;DHT22;14507;52.418;13.398;2022-07-29T05:32:07;16.80;98.90
26952;DHT22;14507;52.418;13.398;2022-07-29T05:34:32;16.80;98.90
26952;DHT22;14507;52.418;13.398;2022-07-29T05:36:58;16.80;98.80
26952;DHT22;14507;52.418;13.398;2022-07-29T05:39:24;16.70;98.90
26952;DHT22;14507;52.418;13.398;2022-07-29T05:41:49;16.80;98.90
26952;DHT22;14507;52.418;13.398;2022-07-29T05:44:15;16.80;98.70
26952;DHT22;14507;52.418;13.398;2022-07-29T05:46:41;16.70;98.80
26952;DHT22;14507;52.418;13.398;2022-07-29T05:49:06;16.70;98.60
26952;DHT22;14507;52.418;13.398;2022-07-29T05:51:35;16.80;98.80
26952;DHT22;14507;52.418;13.398;2022-07-29T05:54:01;16.80;98.60
26952;DHT22;14507;52.418;13.398;2022-07-29T05:56:27;17.00;98.90
26952;DHT22;14507;52.418;13.398;2022-07-29T05:58:53;17.10;98.20
26952;DHT22;14507;52.418;13.398;2022-07-29T06:01:18;17.20;98.10
26952;DHT22;14507;52.418;13.398;2022-07-29T06:03:44;17.50;97.50
26952;DHT22;14507;52.418;13.398;2022-07-29T06:06:10;17.90;97.00
26952;DHT22;14507;52.418;13.398;2022-07-29T06:08:36;18.30;96.00
26952;DHT22;14507;52.418;13.398;2022-07-29T06:11:03;18.60;95.40
26952;DHT22;14507;52.418;13.398;2022-07-29T06:13:29;19.40;94.60
26952;DHT22;14507;52.418;13.398;2022-07-29T06:15:54;18.90;94.40
26952;DHT22;14507;52.418;13.398;2022-07-29T06:18:20;19.00;94.50
26952;DHT22;14507;52.418;13.398;2022-07-29T06:20:52;19.10;94.30
26952;DHT22;14507;52.418;13.398;2022-07-29T06:23:19;19.20;94.00
26952;DHT22;14507;52.418;13.398;2022-07-29T06:28:11;19.40;92.80
26952;DHT22;14507;52.418;13.398;2022-07-29T06:30:37;19.60;93.20
26952;DHT22;14507;52.418;13.398;2022-07-29T06:33:03;19.70;91.90
26952;DHT22;14507;52.418;13.398;2022-07-29T06:35:29;19.80;92.60
26952;DHT22;14507;52.418;13.398;2022-07-29T06:37:54;20.10;92.00
26952;DHT22;14507;52.418;13.398;2022-07-29T06:40:20;20.20;91.40
26952;DHT22;14507;52.418;13.398;2022-07-29T06:43:04;20.20;90.80
26952;DHT22;14507;52.418;13.398;2022-07-29T06:45:33;19.70;94.00
26952;DHT22;14507;52.418;13.398;2022-07-29T06:47:59;19.80;91.30
26952;DHT22;14507;52.418;13.398;2022-07-29T06:50:25;19.20;91.80
26952;DHT22;14507;52.418;13.398;2022-07-29T06:52:50;19.80;91.60
26952;DHT22;14507;52.418;13.398;2022-07-29T06:55:16;19.80;91.70
26952;DHT22;14507;52.418;13.398;2022-07-29T06:57:44;19.80;91.10
26952;DHT22;14507;52.418;13.398;2022-07-29T07:00:11;19.80;91.50
26952;DHT22;14507;52.418;13.398;2022-07-29T07:02:36;19.80;91.60
26952;DHT22;14507;52.418;13.398;2022-07-29T07:05:02;19.90;91.00
26952;DHT22;14507;52.418;13.398;2022-07-29T07:07:28;20.00;91.20
26952;DHT22;14507;52.418;13.398;2022-07-29T07:09:53;20.10;91.20
26952;DHT22;14507;52.418;13.398;2022-07-29T07:12:19;20.40;91.30
26952;DHT22;14507;52.418;13.398;2022-07-29T07:14:45;20.70;90.70
26952;DHT22;14507;52.418;13.398;2022-07-29T07:17:10;20.90;90.10
26952;DHT22;14507;52.418;13.398;2022-07-29T07:19:36;21.10;90.00
26952;DHT22;14507;52.418;13.398;2022-07-29T07:22:01;21.70;90.20
26952;DHT22;14507;52.418;13.398;2022-07-29T07:24:27;21.60;87.90
26952;DHT22;14507;52.418;13.398;2022-07-29T07:26:53;22.00;88.50
26952;DHT22;14507;52.418;13.398;2022-07-29T07:29:18;22.40;87.50
26952;DHT22;14507;52.418;13.398;2022-07-29T07:31:44;22.90;85.80
26952;DHT22;14507;52.418;13.398;2022-07-29T07:34:10;23.50;82.70
26952;DHT22;14507;52.418;13.398;2022-07-29T07:36:36;23.60;81.50
26952;DHT22;14507;52.418;13.398;2022-07-29T07:39:02;24.20;80.50
26952;DHT22;14507;52.418;13.398;2022-07-29T07:41:29;25.10;76.90
26952;DHT22;14507;52.418;13.398;2022-07-29T07:43:55;25.10;77.00
26952;DHT22;14507;52.418;13.398;2022-07-29T07:46:21;25.30;73.90
26952;DHT22;14507;52.418;13.398;2022-07-29T07:48:46;25.60;73.80
26952;DHT22;14507;52.418;13.398;2022-07-29T07:51:12;26.10;72.70
26952;DHT22;14507;52.418;13.398;2022-07-29T07:53:38;26.50;70.40
26952;DHT22;14507;52.418;13.398;2022-07-29T07:56:03;26.50;70.50
26952;DHT22;14507;52.418;13.398;2022-07-29T07:58:31;26.30;70.00
26952;DHT22;14507;52.418;13.398;2022-07-29T08:00:57;26.30;70.70
26952;DHT22;14507;52.418;13.398;2022-07-29T08:03:22;26.50;68.40
26952;DHT22;14507;52.418;13.398;2022-07-29T08:05:51;26.20;68.90
26952;DHT22;14507;52.418;13.398;2022-07-29T08:08:17;25.80;69.70
26952;DHT22;14507;52.418;13.398;2022-07-29T08:10:43;25.60;70.30
26952;DHT22;14507;52.418;13.398;2022-07-29T08:13:18;25.40;70.60
26952;DHT22;14507;52.418;13.398;2022-07-29T08:15:45;25.40;71.00
26952;DHT22;14507;52.418;13.398;2022-07-29T08:18:12;25.40;69.90
26952;DHT22;14507;52.418;13.398;2022-07-29T08:20:38;25.70;69.60
26952;DHT22;14507;52.418;13.398;2022-07-29T08:23:06;26.00;69.20
26952;DHT22;14507;52.418;13.398;2022-07-29T08:25:35;26.10;69.70
26952;DHT22;14507;52.418;13.398;2022-07-29T08:28:01;26.60;69.50
26952;DHT22;14507;52.418;13.398;2022-07-29T08:30:27;27.10;67.90
26952;DHT22;14507;52.418;13.398;2022-07-29T08:32:52;27.40;66.20
26952;DHT22;14507;52.418;13.398;2022-07-29T08:35:22;27.20;66.40
26952;DHT22;14507;52.418;13.398;2022-07-29T08:37:48;27.00;66.20
26952;DHT22;14507;52.418;13.398;2022-07-29T08:40:13;26.50;66.30
26952;DHT22;14507;52.418;13.398;2022-07-29T08:42:40;26.00;67.30
26952;DHT22;14507;52.418;13.398;2022-07-29T08:45:06;25.60;67.90
26952;DHT22;14507;52.418;13.398;2022-07-29T08:47:32;25.10;69.40
26952;DHT22;14507;52.418;13.398;2022-07-29T08:49:58;25.10;70.50
26952;DHT22;14507;52.418;13.398;2022-07-29T08:52:25;25.20;69.10
26952;DHT22;14507;52.418;13.398;2022-07-29T08:54:55;25.20;70.20
26952;DHT22;14507;52.418;13.398;2022-07-29T08:57:21;25.20;70.20
26952;DHT22;14507;52.418;13.398;2022-07-29T08:59:50;25.20;69.90
26952;DHT22;14507;52.418;13.398;2022-07-29T09:02:21;25.10;70.50
26952;DHT22;14507;52.418;13.398;2022-07-29T09:04:48;25.10;70.10
26952;DHT22;14507;52.418;13.398;2022-07-29T09:07:18;25.10;70.20
26952;DHT22;14507;52.418;13.398;2022-07-29T09:09:44;25.40;70.50
26952;DHT22;14507;52.418;13.398;2022-07-29T09:12:10;25.90;70.50
26952;DHT22;14507;52.418;13.398;2022-07-29T09:14:37;26.30;67.10
26952;DHT22;14507;52.418;13.398;2022-07-29T09:17:03;26.30;65.70
26952;DHT22;14507;52.418;13.398;2022-07-29T09:19:31;26.40;65.60
26952;DHT22;14507;52.418;13.398;2022-07-29T09:21:57;26.70;66.90
26952;DHT22;14507;52.418;13.398;2022-07-29T09:24:35;27.00;65.10
26952;DHT22;14507;52.418;13.398;2022-07-29T09:27:02;27.00;64.40
26952;DHT22;14507;52.418;13.398;2022-07-29T09:29:28;27.00;64.00
26952;DHT22;14507;52.418;13.398;2022-07-29T09:31:54;27.00;64.00
26952;DHT22;14507;52.418;13.398;2022-07-29T09:34:27;26.90;63.70
26952;DHT22;14507;52.418;13.398;2022-07-29T09:36:55;26.70;64.10
26952;DHT22;14507;52.418;13.398;2022-07-29T09:39:41;26.50;64.00
26952;DHT22;14507;52.418;13.398;2022-07-29T09:42:11;26.30;63.20
26952;DHT22;14507;52.418;13.398;2022-07-29T09:44:42;26.20;63.30
26952;DHT22;14507;52.418;13.398;2022-07-29T09:47:08;26.00;63.00
26952;DHT22;14507;52.418;13.398;2022-07-29T09:49:35;26.00;63.40
26952;DHT22;14507;52.418;13.398;2022-07-29T09:52:05;26.00;63.80
26952;DHT22;14507;52.418;13.398;2022-07-29T09:54:32;26.00;63.10
26952;DHT22;14507;52.418;13.398;2022-07-29T09:57:03;25.90;63.50
26952;DHT22;14507;52.418;13.398;2022-07-29T09:59:30;25.90;62.90
26952;DHT22;14507;52.418;13.398;2022-07-29T10:01:56;26.00;63.10
26952;DHT22;14507;52.418;13.398;2022-07-29T10:04:22;26.10;61.70
26952;DHT22;14507;52.418;13.398;2022-07-29T10:07:01;26.20;61.20
26952;DHT22;14507;52.418;13.398;2022-07-29T10:09:28;26.40;61.20
26952;DHT22;14507;52.418;13.398;2022-07-29T10:14:30;26.70;60.50
26952;DHT22;14507;52.418;13.398;2022-07-29T10:16:56;26.80;60.00
26952;DHT22;14507;52.418;13.398;2022-07-29T10:19:22;26.60;59.40
26952;DHT22;14507;52.418;13.398;2022-07-29T10:21:48;26.40;59.90
26952;DHT22;14507;52.418;13.398;2022-07-29T10:24:14;26.20;60.50
26952;DHT22;14507;52.418;13.398;2022-07-29T10:26:40;26.20;60.30
26952;DHT22;14507;52.418;13.398;2022-07-29T10:29:06;26.10;60.20
26952;DHT22;14507;52.418;13.398;2022-07-29T10:37:41;26.00;60.90
26952;DHT22;14507;52.418;13.398;2022-07-29T10:43:31;26.60;60.40
26952;DHT22;14507;52.418;13.398;2022-07-29T10:46:02;27.10;60.40
26952;DHT22;14507;52.418;13.398;2022-07-29T10:48:29;27.40;59.90
26952;DHT22;14507;52.418;13.398;2022-07-29T10:51:03;27.60;59.90
26952;DHT22;14507;52.418;13.398;2022-07-29T10:53:49;27.80;58.50
26952;DHT22;14507;52.418;13.398;2022-07-29T10:56:27;27.20;58.70
26952;DHT22;14507;52.418;13.398;2022-07-29T11:01:48;26.80;58.90
26952;DHT22;14507;52.418;13.398;2022-07-29T11:07:10;26.80;59.80
26952;DHT22;14507;52.418;13.398;2022-07-29T11:09:37;26.80;60.10
26952;DHT22;14507;52.418;13.398;2022-07-29T11:12:07;26.70;60.00
26952;DHT22;14507;52.418;13.398;2022-07-29T11:14:58;26.70;60.20
26952;DHT22;14507;52.418;13.398;2022-07-29T11:17:25;26.80;60.70
26952;DHT22;14507;52.418;13.398;2022-07-29T11:19:51;27.00;60.90
26952;DHT22;14507;52.418;13.398;2022-07-29T11:22:34;27.20;60.90
26952;DHT22;14507;52.418;13.398;2022-07-29T11:25:26;27.30;62.80
26952;DHT22;14507;52.418;13.398;2022-07-29T11:27:54;27.50;62.60
26952;DHT22;14507;52.418;13.398;2022-07-29T11:30:52;27.60;60.50
26952;DHT22;14507;52.418;13.398;2022-07-29T11:33:28;27.70;60.50
26952;DHT22;14507;52.418;13.398;2022-07-29T11:38:33;27.50;61.30
26952;DHT22;14507;52.418;13.398;2022-07-29T11:43:56;27.40;61.80
26952;DHT22;14507;52.418;13.398;2022-07-29T11:46:48;27.30;62.00
26952;DHT22;14507;52.418;13.398;2022-07-29T11:49:25;27.20;62.10
26952;DHT22;14507;52.418;13.398;2022-07-29T11:51:56;27.30;63.20
26952;DHT22;14507;52.418;13.398;2022-07-29T11:54:25;27.20;63.20
26952;DHT22;14507;52.418;13.398;2022-07-29T11:56:54;27.40;64.20
26952;DHT22;14507;52.418;13.398;2022-07-29T11:59:21;27.50;62.10
26952;DHT22;14507;52.418;13.398;2022-07-29T12:01:56;27.70;62.90
26952;DHT22;14507;52.418;13.398;2022-07-29T12:04:22;27.80;62.70
26952;DHT22;14507;52.418;13.398;2022-07-29T12:06:52;27.80;62.00
26952;DHT22;14507;52.418;13.398;2022-07-29T12:09:19;27.80;65.00
26952;DHT22;14507;52.418;13.398;2022-07-29T12:11:46;27.90;63.80
26952;DHT22;14507;52.418;13.398;2022-07-29T12:14:28;28.20;62.70
26952;DHT22;14507;52.418;13.398;2022-07-29T12:16:55;28.20;61.80
26952;DHT22;14507;52.418;13.398;2022-07-29T12:19:20;28.10;63.40
26952;DHT22;14507;52.418;13.398;2022-07-29T12:21:47;28.10;64.50
26952;DHT22;14507;52.418;13.398;2022-07-29T12:24:13;28.10;63.10
26952;DHT22;14507;52.418;13.398;2022-07-29T12:26:59;28.20;63.00
26952;DHT22;14507;52.418;13.398;2022-07-29T12:29:25;28.20;62.20
26952;DHT22;14507;52.418;13.398;2022-07-29T12:31:55;27.90;62.80
26952;DHT22;14507;52.418;13.398;2022-07-29T12:34:23;27.90;62.80
26952;DHT22;14507;52.418;13.398;2022-07-29T12:36:52;27.90;63.10
26952;DHT22;14507;52.418;13.398;2022-07-29T12:39:18;28.00;62.20
26952;DHT22;14507;52.418;13.398;2022-07-29T12:41:44;28.00;62.50
26952;DHT22;14507;52.418;13.398;2022-07-29T12:44:10;28.10;61.90
26952;DHT22;14507;52.418;13.398;2022-07-29T12:46:36;28.10;61.90
26952;DHT22;14507;52.418;13.398;2022-07-29T12:49:02;27.80;63.00
26952;DHT22;14507;52.418;13.398;2022-07-29T12:51:38;27.80;63.20
26952;DHT22;14507;52.418;13.398;2022-07-29T12:54:10;27.60;62.90
26952;DHT22;14507;52.418;13.398;2022-07-29T12:56:40;27.50;63.50
26952;DHT22;14507;52.418;13.398;2022-07-29T12:59:20;27.50;63.40
26952;DHT22;14507;52.418;13.398;2022-07-29T13:01:47;27.50;63.00
26952;DHT22;14507;52.418;13.398;2022-07-29T13:04:33;27.40;63.70
26952;DHT22;14507;52.418;13.398;2022-07-29T13:07:07;27.60;63.50
26952;DHT22;14507;52.418;13.398;2022-07-29T13:09:41;27.70;63.70
26952;DHT22;14507;52.418;13.398;2022-07-29T13:12:09;27.80;64.30
26952;DHT22;14507;52.418;13.398;2022-07-29T13:14:43;27.90;62.80
26952;DHT22;14507;52.418;13.398;2022-07-29T13:17:22;27.90;63.70
26952;DHT22;14507;52.418;13.398;2022-07-29T13:19:51;28.00;63.00
26952;DHT22;14507;52.418;13.398;2022-07-29T13:22:26;28.00;62.70
26952;DHT22;14507;52.418;13.398;2022-07-29T13:27:23;28.00;61.10
26952;DHT22;14507;52.418;13.398;2022-07-29T13:32:26;27.90;62.00
26952;DHT22;14507;52.418;13.398;2022-07-29T13:34:52;28.00;62.50
26952;DHT22;14507;52.418;13.398;2022-07-29T13:37:18;28.10;62.00
26952;DHT22;14507;52.418;13.398;2022-07-29T13:39:44;28.20;61.60
26952;DHT22;14507;52.418;13.398;2022-07-29T13:42:10;28.20;61.50
26952;DHT22;14507;52.418;13.398;2022-07-29T13:44:41;28.20;61.90
26952;DHT22;14507;52.418;13.398;2022-07-29T13:47:07;28.10;61.30
26952;DHT22;14507;52.418;13.398;2022-07-29T13:49:33;27.90;62.10
26952;DHT22;14507;52.418;13.398;2022-07-29T13:51:59;27.90;62.40
26952;DHT22;14507;52.418;13.398;2022-07-29T13:54:25;28.00;62.50
26952;DHT22;14507;52.418;13.398;2022-07-29T13:56:51;28.10;62.00
26952;DHT22;14507;52.418;13.398;2022-07-29T13:59:17;28.00;62.40
26952;DHT22;14507;52.418;13.398;2022-07-29T14:01:42;28.10;63.70
26952;DHT22;14507;52.418;13.398;2022-07-29T14:04:09;28.10;61.50
26952;DHT22;14507;52.418;13.398;2022-07-29T14:06:35;28.20;61.10
26952;DHT22;14507;52.418;13.398;2022-07-29T14:09:01;28.30;60.70
26952;DHT22;14507;52.418;13.398;2022-07-29T14:11:27;28.40;59.40
26952;DHT22;14507;52.418;13.398;2022-07-29T14:13:53;28.30;60.30
26952;DHT22;14507;52.418;13.398;2022-07-29T14:16:18;28.20;60.50
26952;DHT22;14507;52.418;13.398;2022-07-29T14:18:44;28.10;60.80
26952;DHT22;14507;52.418;13.398;2022-07-29T14:21:10;28.10;60.90
26952;DHT22;14507;52.418;13.398;2022-07-29T14:23:36;28.10;60.30
26952;DHT22;14507;52.418;13.398;2022-07-29T14:26:02;28.10;60.30
26952;DHT22;14507;52.418;13.398;2022-07-29T14:28:27;28.10;60.50
26952;DHT22;14507;52.418;13.398;2022-07-29T14:30:53;28.20;59.40
26952;DHT22;14507;52.418;13.398;2022-07-29T14:33:19;28.20;60.50
26952;DHT22;14507;52.418;13.398;2022-07-29T14:35:45;28.30;60.40
26952;DHT22;14507;52.418;13.398;2022-07-29T14:38:11;28.40;59.40
26952;DHT22;14507;52.418;13.398;2022-07-29T15:16:51;28.00;59.10
26952;DHT22;14507;52.418;13.398;2022-07-29T15:19:17;28.00;57.90
26952;DHT22;14507;52.418;13.398;2022-07-29T15:21:42;27.90;58.20
26952;DHT22;14507;52.418;13.398;2022-07-29T15:24:08;27.80;58.40
26952;DHT22;14507;52.418;13.398;2022-07-29T15:26:34;27.80;59.40
26952;DHT22;14507;52.418;13.398;2022-07-29T15:28:59;27.60;59.80
26952;DHT22;14507;52.418;13.398;2022-07-29T15:31:25;27.60;60.20
26952;DHT22;14507;52.418;13.398;2022-07-29T15:33:50;27.60;59.90
26952;DHT22;14507;52.418;13.398;2022-07-29T15:36:16;27.60;59.70
26952;DHT22;14507;52.418;13.398;2022-07-29T15:38:42;27.70;59.80
26952;DHT22;14507;52.418;13.398;2022-07-29T15:41:09;27.80;59.50
26952;DHT22;14507;52.418;13.398;2022-07-29T15:43:35;27.90;59.50
26952;DHT22;14507;52.418;13.398;2022-07-29T15:46:01;27.90;59.50
26952;DHT22;14507;52.418;13.398;2022-07-29T15:48:45;28.00;59.00
26952;DHT22;14507;52.418;13.398;2022-07-29T15:51:11;28.10;59.00
26952;DHT22;14507;52.418;13.398;2022-07-29T15:53:37;28.10;58.80
26952;DHT22;14507;52.418;13.398;2022-07-29T15:56:03;28.10;59.30
26952;DHT22;14507;52.418;13.398;2022-07-29T15:58:29;28.10;59.10
26952;DHT22;14507;52.418;13.398;2022-07-29T16:00:54;28.10;58.70
26952;DHT22;14507;52.418;13.398;2022-07-29T16:03:20;28.10;58.50
26952;DHT22;14507;52.418;13.398;2022-07-29T16:05:47;28.20;58.70
26952;DHT22;14507;52.418;13.398;2022-07-29T16:08:12;28.20;58.20
26952;DHT22;14507;52.418;13.398;2022-07-29T16:10:38;28.30;58.40
26952;DHT22;14507;52.418;13.398;2022-07-29T16:13:04;28.20;58.30
26952;DHT22;14507;52.418;13.398;2022-07-29T16:15:29;28.20;58.70
26952;DHT22;14507;52.418;13.398;2022-07-29T16:17:55;28.10;59.20
26952;DHT22;14507;52.418;13.398;2022-07-29T16:20:21;28.10;59.40
26952;DHT22;14507;52.418;13.398;2022-07-29T16:22:46;28.20;59.10
26952;DHT22;14507;52.418;13.398;2022-07-29T16:25:12;28.20;59.10
26952;DHT22;14507;52.418;13.398;2022-07-29T16:27:37;28.10;58.90
26952;DHT22;14507;52.418;13.398;2022-07-29T16:30:04;28.00;58.80
26952;DHT22;14507;52.418;13.398;2022-07-29T16:32:31;27.90;58.80
26952;DHT22;14507;52.418;13.398;2022-07-29T16:34:56;27.80;59.00
26952;DHT22;14507;52.418;13.398;2022-07-29T16:37:22;27.80;59.30
26952;DHT22;14507;52.418;13.398;2022-07-29T16:39:48;27.90;59.30